createdAt,value
2018-08-25T00:02:15.143Z,99287.00
2018-08-25T00:04:44.594Z,99280.00
2018-08-25T00:07:14.116Z,99276.00
2018-08-25T00:09:43.830Z,99274.00
2018-08-25T00:12:13.632Z,99271.00
2018-08-25T00:14:42.882Z,99264.00
2018-08-25T00:17:12.040Z,99259.00
2018-08-25T00:19:41.392Z,99254.00
2018-08-25T00:22:11.314Z,99245.00
2018-08-25T00:24:40.703Z,99243.00
2018-08-25T00:27:10.910Z,99238.00
2018-08-25T00:29:41.078Z,99236.00
2018-08-25T00:32:10.494Z,99235.00
2018-08-25T00:34:40.080Z,99229.00
2018-08-25T00:37:09.364Z,99226.00
2018-08-25T00:39:39.525Z,99228.00
2018-08-25T00:42:09.380Z,99231.00
2018-08-25T00:44:38.417Z,99226.00
2018-08-25T00:47:08.760Z,99227.00
2018-08-25T00:49:38.027Z,99217.00
2018-08-25T00:52:07.286Z,99220.00
2018-08-25T00:54:36.597Z,99212.00
2018-08-25T00:57:05.999Z,99209.00
2018-08-25T00:59:35.205Z,99204.00
2018-08-25T01:02:04.880Z,99207.00
2018-08-25T01:04:33.998Z,99204.00
2018-08-25T01:07:03.099Z,99201.00
2018-08-25T01:09:32.184Z,99193.00
2018-08-25T01:12:01.249Z,99178.00
2018-08-25T01:14:30.731Z,99173.00
2018-08-25T01:17:00.057Z,99166.00
2018-08-25T01:19:29.344Z,99169.00
2018-08-25T01:21:58.671Z,99166.00
2018-08-25T01:24:28.236Z,99158.00
2018-08-25T01:26:57.541Z,99159.00
2018-08-25T01:29:27.661Z,99161.00
2018-08-25T01:31:59.599Z,99160.00
2018-08-25T01:34:29.191Z,99153.00
2018-08-25T01:36:58.511Z,99145.00
2018-08-25T01:39:30.624Z,99146.00
2018-08-25T01:42:01.447Z,99149.00
2018-08-25T01:44:36.137Z,99137.00
2018-08-25T01:47:10.820Z,99136.00
2018-08-25T01:49:42.222Z,99135.00
2018-08-25T01:52:17.503Z,99135.00
2018-08-25T01:54:50.666Z,99133.00
2018-08-25T01:57:20.134Z,99130.00
2018-08-25T01:59:50.102Z,99132.00
2018-08-25T02:02:19.462Z,99122.00
2018-08-25T02:04:48.828Z,99115.00
2018-08-25T02:07:18.316Z,99106.00
2018-08-25T02:09:48.952Z,99109.00
2018-08-25T02:12:18.281Z,99119.00
2018-08-25T02:14:47.479Z,99111.00
2018-08-25T02:17:17.257Z,99109.00
2018-08-25T02:19:52.188Z,99115.00
2018-08-25T02:22:22.810Z,99121.00
2018-08-25T02:24:52.904Z,99128.00
2018-08-25T02:27:22.815Z,99119.00
2018-08-25T02:29:53.378Z,99122.00
2018-08-25T02:32:24.317Z,99121.00
2018-08-25T02:34:53.668Z,99118.00
2018-08-25T02:37:23.056Z,99120.00
2018-08-25T02:39:52.363Z,99112.00
2018-08-25T02:42:21.759Z,99119.00
2018-08-25T02:44:51.287Z,99119.00
2018-08-25T02:47:21.279Z,99116.00
2018-08-25T02:49:55.111Z,99110.00
2018-08-25T02:52:24.719Z,99109.00
2018-08-25T02:54:54.049Z,99104.00
2018-08-25T02:57:23.539Z,99111.00
2018-08-25T02:59:53.652Z,99107.00
2018-08-25T03:02:24.241Z,99106.00
2018-08-25T03:04:53.521Z,99104.00
2018-08-25T03:07:22.961Z,99097.00
2018-08-25T03:09:58.014Z,99100.00
2018-08-25T03:12:27.371Z,99106.00
2018-08-25T03:14:56.910Z,99102.00
2018-08-25T03:17:27.289Z,99107.00
2018-08-25T03:19:59.703Z,99105.00
2018-08-25T03:22:29.888Z,99113.00
2018-08-25T03:24:59.694Z,99106.00
2018-08-25T03:27:29.717Z,99108.00
2018-08-25T03:30:00.153Z,99096.00
2018-08-25T03:32:30.901Z,99094.00
2018-08-25T03:35:00.707Z,99082.00
2018-08-25T03:37:30.618Z,99082.00
2018-08-25T03:40:00.272Z,99084.00
2018-08-25T03:42:31.175Z,99085.00
2018-08-25T03:45:02.543Z,99070.00
2018-08-25T03:47:32.448Z,99087.00
2018-08-25T03:50:04.263Z,99088.00
2018-08-25T03:52:34.019Z,99097.00
2018-08-25T03:55:05.998Z,99101.00
2018-08-25T03:57:36.829Z,99087.00
2018-08-25T04:00:07.524Z,99091.00
2018-08-25T04:02:37.291Z,99091.00
2018-08-25T04:05:07.246Z,99100.00
2018-08-25T04:07:37.350Z,99096.00
2018-08-25T04:10:07.621Z,99099.00
2018-08-25T04:12:40.606Z,99092.00
2018-08-25T04:15:13.716Z,99093.00
2018-08-25T04:17:44.661Z,99087.00
2018-08-25T04:20:14.640Z,99089.00
2018-08-25T04:22:44.677Z,99089.00
2018-08-25T04:25:15.204Z,99084.00
2018-08-25T04:27:45.158Z,99086.00
2018-08-25T04:30:17.481Z,99089.00
2018-08-25T04:32:47.198Z,99093.00
2018-08-25T04:35:17.090Z,99096.00
2018-08-25T04:37:47.038Z,99100.00
2018-08-25T04:40:17.856Z,99103.00
2018-08-25T04:42:48.020Z,99104.00
2018-08-25T04:45:19.371Z,99103.00
2018-08-25T04:47:49.080Z,99115.00
2018-08-25T04:50:18.907Z,99109.00
2018-08-25T04:52:48.544Z,99122.00
2018-08-25T04:55:22.725Z,99129.00
2018-08-25T04:57:52.603Z,99132.00
2018-08-25T05:00:23.029Z,99139.00
2018-08-25T05:02:52.675Z,99145.00
2018-08-25T05:05:22.635Z,99148.00
2018-08-25T05:07:52.565Z,99153.00
2018-08-25T05:10:22.406Z,99151.00
2018-08-25T05:12:52.162Z,99149.00
2018-08-25T05:15:21.694Z,99157.00
2018-08-25T05:17:51.735Z,99161.00
2018-08-25T05:20:21.652Z,99167.00
2018-08-25T05:22:52.633Z,99166.00
2018-08-25T05:25:24.617Z,99165.00
2018-08-25T05:27:56.151Z,99173.00
2018-08-25T05:30:27.684Z,99173.00
2018-08-25T05:32:58.403Z,99177.00
2018-08-25T05:35:29.888Z,99180.00
2018-08-25T05:38:02.373Z,99184.00
2018-08-25T05:40:32.222Z,99188.00
2018-08-25T05:43:02.428Z,99182.00
2018-08-25T05:45:34.141Z,99186.00
2018-08-25T05:50:39.246Z,99189.00
2018-08-25T05:53:10.377Z,99184.00
2018-08-25T05:55:39.847Z,99192.00
2018-08-25T05:58:09.532Z,99181.00
2018-08-25T06:00:39.123Z,99184.00
2018-08-25T06:03:12.073Z,99182.00
2018-08-25T06:05:41.705Z,99186.00
2018-08-25T06:08:17.450Z,99182.00
2018-08-25T06:10:47.481Z,99200.00
2018-08-25T06:13:18.167Z,99204.00
2018-08-25T06:15:47.960Z,99208.00
2018-08-25T06:18:18.479Z,99192.00
2018-08-25T06:20:48.484Z,99198.00
2018-08-25T06:23:23.720Z,99201.00
2018-08-25T06:25:54.035Z,99194.00
2018-08-25T06:28:24.335Z,99202.00
2018-08-25T06:30:55.936Z,99215.00
2018-08-25T06:33:25.957Z,99209.00
2018-08-25T06:35:58.216Z,99213.00
2018-08-25T06:38:28.505Z,99216.00
2018-08-25T06:41:00.049Z,99211.00
2018-08-25T06:43:31.052Z,99214.00
2018-08-25T06:46:07.500Z,99216.00
2018-08-25T06:48:39.543Z,99216.00
2018-08-25T06:51:12.421Z,99212.00
2018-08-25T06:53:43.249Z,99215.00
2018-08-25T06:56:18.282Z,99227.00
2018-08-25T06:58:48.535Z,99217.00
2018-08-25T07:01:23.532Z,99223.00
2018-08-25T07:03:57.107Z,99227.00
2018-08-25T07:06:28.658Z,99238.00
2018-08-25T07:09:03.069Z,99245.00
2018-08-25T07:11:38.053Z,99249.00
2018-08-25T07:14:09.649Z,99247.00
2018-08-25T07:16:40.973Z,99238.00
2018-08-25T07:19:11.861Z,99241.00
2018-08-25T07:21:42.489Z,99256.00
2018-08-25T07:24:13.572Z,99261.00
2018-08-25T07:26:47.949Z,99256.00
2018-08-25T07:29:20.758Z,99259.00
2018-08-25T07:31:52.051Z,99257.00
2018-08-25T07:34:22.994Z,99258.00
2018-08-25T07:36:53.205Z,99271.00
2018-08-25T07:39:24.091Z,99273.00
2018-08-25T07:41:54.223Z,99275.00
2018-08-25T07:44:25.511Z,99281.00
2018-08-25T07:46:57.542Z,99286.00
2018-08-25T07:49:29.750Z,99282.00
2018-08-25T07:52:02.255Z,99279.00
2018-08-25T07:54:33.526Z,99286.00
2018-08-25T07:57:04.657Z,99281.00
2018-08-25T07:59:35.763Z,99282.00
2018-08-25T08:02:05.731Z,99287.00
2018-08-25T08:04:37.454Z,99285.00
2018-08-25T08:07:11.314Z,99290.00
2018-08-25T08:09:46.954Z,99293.00
2018-08-25T08:12:24.581Z,99298.00
2018-08-25T08:14:57.309Z,99296.00
2018-08-25T08:17:28.780Z,99303.00
2018-08-25T08:20:00.754Z,99294.00
2018-08-25T08:22:33.041Z,99302.00
2018-08-25T08:25:06.371Z,99307.00
2018-08-25T08:27:37.320Z,99316.00
2018-08-25T08:30:09.023Z,99320.00
2018-08-25T08:32:43.421Z,99320.00
2018-08-25T08:35:15.901Z,99317.00
2018-08-25T08:37:54.045Z,99312.00
2018-08-25T08:40:27.550Z,99323.00
2018-08-25T08:43:01.678Z,99327.00
2018-08-25T08:45:40.551Z,99339.00
2018-08-25T08:48:27.002Z,99331.00
2018-08-25T08:50:58.691Z,99338.00
2018-08-25T08:53:32.828Z,99347.00
2018-08-25T08:56:05.519Z,99357.00
2018-08-25T08:58:37.110Z,99355.00
2018-08-25T09:01:08.404Z,99368.00
2018-08-25T09:03:40.129Z,99369.00
2018-08-25T09:06:12.005Z,99381.00
2018-08-25T09:08:43.482Z,99381.00
2018-08-25T09:11:17.502Z,99387.00
2018-08-25T09:13:47.587Z,99391.00
2018-08-25T09:16:18.782Z,99392.00
2018-08-25T09:18:49.025Z,99395.00
2018-08-25T09:21:21.634Z,99390.00
2018-08-25T09:23:53.131Z,99395.00
2018-08-25T09:26:28.640Z,99403.00
2018-08-25T09:28:59.932Z,99399.00
2018-08-25T09:31:30.611Z,99403.00
2018-08-25T09:34:05.702Z,99404.00
2018-08-25T09:36:38.257Z,99402.00
2018-08-25T09:39:12.738Z,99393.00
2018-08-25T09:41:46.115Z,99394.00
2018-08-25T09:44:17.422Z,99390.00
2018-08-25T09:46:49.197Z,99386.00
2018-08-25T09:49:20.556Z,99390.00
2018-08-25T09:51:52.621Z,99396.00
2018-08-25T09:54:28.839Z,99396.00
2018-08-25T09:56:59.925Z,99389.00
2018-08-25T09:59:32.969Z,99389.00
2018-08-25T10:02:03.753Z,99392.00
2018-08-25T10:04:34.035Z,99396.00
2018-08-25T10:07:08.573Z,99400.00
2018-08-25T10:09:39.451Z,99394.00
2018-08-25T10:17:02.414Z,99402.00
2018-08-25T10:19:31.588Z,99410.00
2018-08-25T10:22:00.806Z,99408.00
2018-08-25T10:24:29.852Z,99414.00
2018-08-25T10:26:59.017Z,99420.00
2018-08-25T10:29:28.128Z,99412.00
2018-08-25T10:31:57.424Z,99412.00
2018-08-25T10:34:26.820Z,99413.00
2018-08-25T10:36:56.063Z,99413.00
2018-08-25T10:39:25.212Z,99411.00
2018-08-25T10:41:54.497Z,99410.00
2018-08-25T10:44:23.832Z,99416.00
2018-08-25T10:46:52.959Z,99412.00
2018-08-25T10:49:22.159Z,99416.00
2018-08-25T10:51:51.393Z,99414.00
2018-08-25T10:54:20.644Z,99413.00
2018-08-25T10:56:49.803Z,99422.00
2018-08-25T10:59:19.114Z,99423.00
2018-08-25T11:01:48.342Z,99425.00
2018-08-25T11:04:17.747Z,99423.00
2018-08-25T11:06:46.918Z,99418.00
2018-08-25T11:09:16.125Z,99416.00
2018-08-25T11:11:45.349Z,99414.00
2018-08-25T11:14:14.766Z,99419.00
2018-08-25T11:16:44.288Z,99416.00
2018-08-25T11:19:27.297Z,99410.00
2018-08-25T11:21:56.561Z,99412.00
2018-08-25T11:24:25.909Z,99413.00
2018-08-25T11:26:55.012Z,99402.00
2018-08-25T11:29:24.180Z,99399.00
2018-08-25T11:31:53.265Z,99396.00
2018-08-25T11:34:22.550Z,99396.00
2018-08-25T11:36:52.308Z,99390.00
2018-08-25T11:39:21.571Z,99392.00
2018-08-25T11:41:50.719Z,99394.00
2018-08-25T11:44:20.046Z,99390.00
2018-08-25T11:46:49.304Z,99397.00
2018-08-25T11:49:18.733Z,99396.00
2018-08-25T11:51:47.955Z,99403.00
2018-08-25T11:54:17.401Z,99419.00
2018-08-25T11:56:46.696Z,99428.00
2018-08-25T11:59:16.072Z,99426.00
2018-08-25T12:01:45.566Z,99430.00
2018-08-25T12:04:14.809Z,99427.00
2018-08-25T12:06:44.401Z,99425.00
2018-08-25T12:09:13.890Z,99424.00
2018-08-25T12:11:43.411Z,99419.00
2018-08-25T12:14:12.957Z,99420.00
2018-08-25T12:16:48.923Z,99420.00
2018-08-25T12:19:18.264Z,99423.00
2018-08-25T12:21:47.411Z,99423.00
2018-08-25T12:24:16.717Z,99419.00
2018-08-25T12:26:46.112Z,99415.00
2018-08-25T12:29:15.677Z,99413.00
2018-08-25T12:31:44.871Z,99405.00
2018-08-25T12:34:14.621Z,99415.00
2018-08-25T12:36:44.115Z,99406.00
2018-08-25T12:39:13.818Z,99412.00
2018-08-25T12:41:43.537Z,99405.00
2018-08-25T12:44:12.974Z,99406.00
2018-08-25T12:46:42.237Z,99401.00
2018-08-25T12:49:11.673Z,99400.00
2018-08-25T12:51:40.927Z,99400.00
2018-08-25T12:54:10.860Z,99395.00
2018-08-25T12:56:40.053Z,99397.00
2018-08-25T12:59:10.345Z,99394.00
2018-08-25T13:01:39.750Z,99405.00
2018-08-25T13:04:08.855Z,99405.00
2018-08-25T13:06:38.064Z,99406.00
2018-08-25T13:09:10.550Z,99395.00
2018-08-25T13:11:40.558Z,99398.00
2018-08-25T13:14:10.004Z,99398.00
2018-08-25T13:16:39.250Z,99395.00
2018-08-25T13:19:08.554Z,99397.00
2018-08-25T13:21:37.787Z,99400.00
2018-08-25T13:24:07.178Z,99397.00
2018-08-25T13:26:36.350Z,99402.00
2018-08-25T13:29:05.580Z,99396.00
2018-08-25T13:31:34.800Z,99402.00
2018-08-25T13:34:03.973Z,99412.00
2018-08-25T13:36:33.454Z,99412.00
2018-08-25T13:39:02.657Z,99415.00
2018-08-25T13:41:31.849Z,99414.00
2018-08-25T13:44:01.193Z,99417.00
2018-08-25T13:46:30.414Z,99423.00
2018-08-25T13:48:59.628Z,99447.00
2018-08-25T13:51:28.781Z,99461.00
2018-08-25T13:53:57.982Z,99471.00
2018-08-25T13:56:27.362Z,99477.00
2018-08-25T13:58:56.524Z,99487.00
2018-08-25T14:01:26.060Z,99501.00
2018-08-25T14:03:55.405Z,99491.00
2018-08-25T14:06:24.547Z,99490.00
2018-08-25T14:08:53.880Z,99500.00
2018-08-25T14:11:23.224Z,99507.00
2018-08-25T14:13:52.421Z,99515.00
2018-08-25T14:16:21.645Z,99510.00
2018-08-25T14:18:50.851Z,99519.00
2018-08-25T14:21:20.071Z,99510.00
2018-08-25T14:23:49.203Z,99515.00
2018-08-25T14:26:18.411Z,99509.00
2018-08-25T14:28:47.911Z,99507.00
2018-08-25T14:31:17.206Z,99501.00
2018-08-25T14:33:46.561Z,99501.00
2018-08-25T14:36:15.882Z,99505.00
2018-08-25T14:38:45.116Z,99517.00
2018-08-25T14:41:15.278Z,99528.00
2018-08-25T14:43:44.456Z,99527.00
2018-08-25T14:46:13.830Z,99529.00
2018-08-25T14:48:43.185Z,99525.00
2018-08-25T14:51:12.661Z,99526.00
2018-08-25T14:53:42.001Z,99531.00
2018-08-25T14:56:13.869Z,99538.00
2018-08-25T14:58:43.397Z,99556.00
2018-08-25T15:01:13.738Z,99562.00
2018-08-25T15:03:42.848Z,99570.00
2018-08-25T15:06:12.294Z,99562.00
2018-08-25T15:08:41.415Z,99575.00
2018-08-25T15:11:10.749Z,99563.00
2018-08-25T15:13:41.350Z,99567.00
2018-08-25T15:16:10.894Z,99565.00
2018-08-25T15:18:40.686Z,99562.00
2018-08-25T15:21:10.185Z,99556.00
2018-08-25T15:23:39.477Z,99563.00
2018-08-25T15:26:08.594Z,99563.00
2018-08-25T15:28:37.712Z,99564.00
2018-08-25T15:31:07.921Z,99562.00
2018-08-25T15:33:37.189Z,99568.00
2018-08-25T15:36:06.456Z,99564.00
2018-08-25T15:38:35.579Z,99569.00
2018-08-25T15:41:05.005Z,99564.00
2018-08-25T15:43:34.596Z,99570.00
2018-08-25T15:46:04.378Z,99569.00
2018-08-25T15:48:33.846Z,99571.00
2018-08-25T15:51:02.990Z,99574.00
2018-08-25T15:53:32.109Z,99574.00
2018-08-25T15:56:01.353Z,99571.00
2018-08-25T15:58:30.693Z,99565.00
2018-08-25T16:01:00.018Z,99563.00
2018-08-25T16:03:29.200Z,99568.00
2018-08-25T16:05:58.854Z,99571.00
2018-08-25T16:08:28.044Z,99569.00
2018-08-25T16:10:57.263Z,99570.00
2018-08-25T16:13:26.464Z,99578.00
2018-08-25T16:15:55.722Z,99579.00
2018-08-25T16:18:24.982Z,99578.00
2018-08-25T16:20:55.945Z,99578.00
2018-08-25T16:23:25.314Z,99579.00
2018-08-25T16:25:54.498Z,99582.00
2018-08-25T16:28:23.765Z,99581.00
2018-08-25T16:30:53.129Z,99582.00
2018-08-25T16:33:22.606Z,99580.00
2018-08-25T16:35:51.796Z,99583.00
2018-08-25T16:38:20.969Z,99576.00
2018-08-25T16:40:50.188Z,99586.00
2018-08-25T16:43:20.701Z,99584.00
2018-08-25T16:45:49.922Z,99589.00
2018-08-25T16:48:19.132Z,99592.00
2018-08-25T16:50:48.415Z,99590.00
2018-08-25T16:53:17.573Z,99601.00
2018-08-25T16:55:47.072Z,99595.00
2018-08-25T16:58:16.201Z,99599.00
2018-08-25T17:00:45.512Z,99605.00
2018-08-25T17:03:14.821Z,99602.00
2018-08-25T17:05:43.985Z,99601.00
2018-08-25T17:08:13.209Z,99606.00
2018-08-25T17:10:42.405Z,99609.00
2018-08-25T17:13:11.955Z,99616.00
2018-08-25T17:15:41.649Z,99616.00
2018-08-25T17:18:11.553Z,99619.00
2018-08-25T17:20:41.879Z,99622.00
2018-08-25T17:23:12.528Z,99621.00
2018-08-25T17:25:41.825Z,99616.00
2018-08-25T17:28:11.150Z,99627.00
2018-08-25T17:30:40.528Z,99628.00
2018-08-25T17:33:09.908Z,99630.00
2018-08-25T17:35:39.106Z,99631.00
2018-08-25T17:38:08.448Z,99636.00
2018-08-25T17:40:37.628Z,99631.00
2018-08-25T17:43:06.946Z,99647.00
2018-08-25T17:45:36.126Z,99650.00
2018-08-25T17:48:05.433Z,99646.00
2018-08-25T17:50:35.617Z,99651.00
2018-08-25T17:53:04.831Z,99651.00
2018-08-25T17:55:34.271Z,99653.00
2018-08-25T17:58:03.779Z,99654.00
2018-08-25T18:00:32.906Z,99658.00
2018-08-25T18:03:02.098Z,99659.00
2018-08-25T18:05:31.730Z,99660.00
2018-08-25T18:08:01.026Z,99661.00
2018-08-25T18:10:30.465Z,99663.00
2018-08-25T18:13:00.137Z,99664.00
2018-08-25T18:15:29.805Z,99668.00
2018-08-25T18:17:59.291Z,99670.00
2018-08-25T18:20:28.877Z,99680.00
2018-08-25T18:22:58.309Z,99679.00
2018-08-25T18:25:28.046Z,99676.00
2018-08-25T18:28:01.428Z,99690.00
2018-08-25T18:30:31.024Z,99685.00
2018-08-25T18:33:01.407Z,99687.00
2018-08-25T18:35:31.572Z,99698.00
2018-08-25T18:38:01.087Z,99703.00
2018-08-25T18:40:30.592Z,99709.00
2018-08-25T18:43:00.080Z,99711.00
2018-08-25T18:45:29.272Z,99711.00
2018-08-25T18:47:58.664Z,99709.00
2018-08-25T18:50:27.897Z,99715.00
2018-08-25T18:52:58.339Z,99719.00
2018-08-25T18:55:27.886Z,99724.00
2018-08-25T18:57:57.304Z,99726.00
2018-08-25T19:00:26.628Z,99732.00
2018-08-25T19:02:55.792Z,99725.00
2018-08-25T19:05:25.148Z,99725.00
2018-08-25T19:07:54.480Z,99729.00
2018-08-25T19:10:23.671Z,99729.00
2018-08-25T19:12:52.854Z,99732.00
2018-08-25T19:15:22.324Z,99734.00
2018-08-25T19:17:52.525Z,99735.00
2018-08-25T19:20:21.753Z,99736.00
2018-08-25T19:22:50.923Z,99737.00
2018-08-25T19:25:20.535Z,99740.00
2018-08-25T19:27:49.745Z,99744.00
2018-08-25T19:30:18.957Z,99754.00
2018-08-25T19:32:48.416Z,99758.00
2018-08-25T19:35:17.524Z,99762.00
2018-08-25T19:37:46.810Z,99763.00
2018-08-25T19:40:16.051Z,99765.00
2018-08-25T19:42:45.164Z,99766.00
2018-08-25T19:45:14.340Z,99766.00
2018-08-25T19:47:43.812Z,99768.00
2018-08-25T19:50:17.263Z,99765.00
2018-08-25T19:52:46.533Z,99772.00
2018-08-25T19:55:15.731Z,99770.00
2018-08-25T19:57:44.939Z,99782.00
2018-08-25T20:00:14.243Z,99785.00
2018-08-25T20:02:43.381Z,99786.00
2018-08-25T20:05:13.815Z,99787.00
2018-08-25T20:07:43.445Z,99796.00
2018-08-25T20:10:13.034Z,99794.00
2018-08-25T20:12:42.379Z,99797.00
2018-08-25T20:15:11.460Z,99798.00
2018-08-25T20:17:40.670Z,99801.00
2018-08-25T20:20:09.933Z,99797.00
2018-08-25T20:22:39.069Z,99805.00
2018-08-25T20:25:08.719Z,99803.00
2018-08-25T20:27:38.825Z,99806.00
2018-08-25T20:30:08.826Z,99802.00
2018-08-25T20:32:38.586Z,99806.00
2018-08-25T20:35:07.833Z,99806.00
2018-08-25T20:37:37.017Z,99808.00
2018-08-25T20:40:06.325Z,99809.00
2018-08-25T20:42:35.728Z,99812.00
2018-08-25T20:45:05.385Z,99812.00
2018-08-25T20:47:34.775Z,99811.00
2018-08-25T20:50:03.993Z,99809.00
2018-08-25T20:52:33.165Z,99810.00
2018-08-25T20:55:02.339Z,99809.00
2018-08-25T20:57:31.453Z,99813.00
2018-08-25T21:00:00.528Z,99817.00
2018-08-25T21:02:29.659Z,99820.00
2018-08-25T21:04:58.908Z,99819.00
2018-08-25T21:07:28.051Z,99820.00
2018-08-25T21:09:57.165Z,99814.00
2018-08-25T21:12:26.322Z,99811.00
2018-08-25T21:14:55.845Z,99812.00
2018-08-25T21:17:25.153Z,99812.00
2018-08-25T21:19:54.253Z,99816.00
2018-08-25T21:22:23.343Z,99820.00
2018-08-25T21:24:52.535Z,99820.00
2018-08-25T21:27:21.660Z,99817.00
2018-08-25T21:29:50.760Z,99808.00
2018-08-25T21:32:19.886Z,99813.00
2018-08-25T21:34:49.136Z,99820.00
2018-08-25T21:37:18.337Z,99825.00
2018-08-25T21:39:47.431Z,99827.00
2018-08-25T21:42:16.686Z,99821.00
2018-08-25T21:44:45.909Z,99822.00
2018-08-25T21:47:15.212Z,99820.00
2018-08-25T21:49:44.424Z,99822.00
2018-08-25T21:52:13.635Z,99826.00
2018-08-25T21:54:43.127Z,99827.00
2018-08-25T21:57:13.513Z,99831.00
2018-08-25T21:59:42.835Z,99823.00
2018-08-25T22:02:16.152Z,99824.00
2018-08-25T22:04:45.347Z,99828.00
2018-08-25T22:07:14.492Z,99826.00
2018-08-25T22:09:43.692Z,99828.00
2018-08-25T22:12:12.861Z,99828.00
2018-08-25T22:14:42.105Z,99826.00
2018-08-25T22:17:11.304Z,99830.00
2018-08-25T22:19:40.512Z,99831.00
2018-08-25T22:22:10.445Z,99839.00
2018-08-25T22:24:39.669Z,99834.00
2018-08-25T22:27:08.876Z,99827.00
2018-08-25T22:29:38.248Z,99824.00
2018-08-25T22:32:07.547Z,99829.00
2018-08-25T22:34:37.015Z,99827.00
2018-08-25T22:37:06.400Z,99830.00
2018-08-25T22:39:35.493Z,99825.00
2018-08-25T22:42:04.682Z,99830.00
2018-08-25T22:44:33.889Z,99834.00
2018-08-25T22:47:02.987Z,99839.00
2018-08-25T22:49:32.128Z,99839.00
2018-08-25T22:52:01.214Z,99842.00
2018-08-25T22:54:30.294Z,99841.00
2018-08-25T22:56:59.551Z,99849.00
2018-08-25T22:59:29.602Z,99848.00
2018-08-25T23:01:59.856Z,99848.00
2018-08-25T23:04:30.037Z,99847.00
2018-08-25T23:06:59.078Z,99845.00
2018-08-25T23:09:28.135Z,99846.00
2018-08-25T23:11:57.273Z,99850.00
2018-08-25T23:14:26.411Z,99850.00
2018-08-25T23:16:55.944Z,99843.00
2018-08-25T23:19:25.109Z,99847.00
2018-08-25T23:21:54.166Z,99844.00
2018-08-25T23:24:23.195Z,99844.00
2018-08-25T23:26:52.268Z,99846.00
2018-08-25T23:29:21.327Z,99847.00
2018-08-25T23:31:50.404Z,99850.00
2018-08-25T23:34:19.472Z,99849.00
2018-08-25T23:36:48.559Z,99854.00
2018-08-25T23:39:17.632Z,99849.00
2018-08-25T23:41:46.740Z,99858.00
2018-08-25T23:44:16.580Z,99856.00
2018-08-25T23:46:46.504Z,99859.00
2018-08-25T23:49:16.706Z,99854.00
2018-08-25T23:51:45.992Z,99855.00
2018-08-25T23:54:15.019Z,99851.00
2018-08-25T23:56:44.117Z,99852.00
2018-08-25T23:59:13.292Z,99851.00
